Time;durP1;ratioP1;P1;durP2;ratioP2;P2;SDS_P1;SDS_P2;PMS_P1;PMS_P2;Temp;Humidity;BMP_temperature;BMP_pressure;BME280_temperature;BME280_humidity;BME280_pressure;Samples;Min_cycle;Max_cycle;Signal;HPM_P1;HPM_P2
2022/06/11 00:01:21;;;;;;;5.53;4.97;;;;;;;16.18;85.35;98741.22;4205209;28;20635;-86
2022/06/11 00:03:24;;;;;;;5.27;4.77;;;;;;;16.20;85.17;98738.47;4205687;28;21199;-86
2022/06/11 00:05:28;;;;;;;6.13;5.17;;;;;;;16.19;86.21;98742.91;4219466;28;20637;-86
2022/06/11 00:07:32;;;;;;;5.83;5.23;;;;;;;16.19;85.41;98744.69;4215542;28;21017;-86
2022/06/11 00:09:37;;;;;;;6.10;5.17;;;;;;;16.20;85.34;98743.72;4214737;28;21271;-87
2022/06/11 00:11:42;;;;;;;7.73;4.83;;;;;;;16.20;86.36;98743.72;4214335;28;21384;-87
2022/06/11 00:13:46;;;;;;;5.63;5.03;;;;;;;16.20;85.60;98743.72;4215030;28;20625;-87
2022/06/11 00:15:49;;;;;;;6.03;5.43;;;;;;;16.19;85.34;98742.03;4221562;28;20654;-87
2022/06/11 00:17:53;;;;;;;7.97;5.37;;;;;;;16.18;87.01;98746.47;4211911;28;20621;-87
2022/06/11 00:19:56;;;;;;;6.27;5.23;;;;;;;16.18;85.86;98740.38;4226569;28;21001;-87
2022/06/11 00:22:05;;;;;;;6.20;5.13;;;;;;;16.14;85.39;98746.84;4225160;28;20649;-86
2022/06/11 00:24:10;;;;;;;8.60;4.93;;;;;;;16.11;86.36;98742.66;4213820;28;20714;-87
2022/06/11 00:26:14;;;;;;;7.77;5.27;;;;;;;16.08;86.40;98749.97;4218472;28;20747;-86
2022/06/11 00:28:18;;;;;;;7.03;5.03;;;;;;;16.07;85.84;98741.25;4203024;28;20626;-86
2022/06/11 00:30:21;;;;;;;5.83;5.20;;;;;;;16.07;86.51;98751.78;4203135;28;21224;-86
2022/06/11 00:32:24;;;;;;;6.03;5.00;;;;;;;16.06;85.16;98746.63;4225375;28;20633;-86
2022/06/11 00:34:28;;;;;;;7.20;4.80;;;;;;;16.02;86.18;98753.09;4205536;28;21284;-86
2022/06/11 00:36:31;;;;;;;5.23;4.73;;;;;;;16.00;87.15;98747.13;4217271;28;20645;-86
2022/06/11 00:38:35;;;;;;;6.50;5.20;;;;;;;15.97;85.59;98739.47;4203000;28;20636;-86
2022/06/11 00:40:42;;;;;;;5.73;5.17;;;;;;;15.95;85.22;98746.66;4202238;28;20670;-86
2022/06/11 00:42:46;;;;;;;7.73;5.13;;;;;;;15.94;85.25;98747.59;4207903;28;21072;-87
2022/06/11 00:44:50;;;;;;;7.10;4.93;;;;;;;15.92;87.58;98756.56;4221291;28;20625;-86
2022/06/11 00:47:00;;;;;;;8.17;5.50;;;;;;;15.91;87.50;98750.47;4210592;28;20629;-86
2022/06/11 00:49:04;;;;;;;6.87;5.10;;;;;;;15.90;87.13;98751.44;4214352;28;20617;-87
2022/06/11 00:51:12;;;;;;;5.80;4.70;;;;;;;15.90;85.45;98743.53;4208976;28;20666;-86
2022/06/11 00:53:19;;;;;;;6.03;5.03;;;;;;;15.85;86.24;98744.88;4222274;28;21184;-87
2022/06/11 00:55:26;;;;;;;12.10;5.73;;;;;;;15.81;85.88;98744.25;4216839;28;20679;-86
2022/06/11 00:57:32;;;;;;;6.60;5.30;;;;;;;15.76;86.77;98735.06;4206567;28;20625;-86
2022/06/11 00:59:41;;;;;;;6.57;5.97;;;;;;;15.73;87.23;98735.31;4217762;28;20713;-86
2022/06/11 01:01:47;;;;;;;5.13;4.60;;;;;;;15.69;87.16;98732.06;4225651;28;20637;-86
2022/06/11 01:03:53;;;;;;;5.90;5.33;;;;;;;15.65;86.72;98727.16;4211563;28;20626;-86
2022/06/11 01:06:04;;;;;;;5.90;5.30;;;;;;;15.64;87.96;98730.78;4220226;28;21208;-87
2022/06/11 01:08:34;;;;;;;6.17;5.57;;;;;;;15.64;87.38;98728.16;4206290;28;20652;-86
2022/06/11 01:11:03;;;;;;;6.00;4.90;;;;;;;15.61;86.32;98731.84;4233062;27;20652;-86
2022/06/11 01:13:16;;;;;;;7.30;5.53;;;;;;;15.57;86.73;98724.31;4210860;28;21296;-85
2022/06/11 01:15:23;;;;;;;7.93;5.40;;;;;;;15.56;87.31;98733.19;4202601;28;20626;-86
2022/06/11 01:17:30;;;;;;;9.87;5.37;;;;;;;15.52;87.28;98730.91;4206542;28;20650;-85
2022/06/11 01:20:21;;;;;;;5.97;4.80;;;;;;;15.45;86.76;98725.25;4199681;28;20628;-86
2022/06/11 01:22:37;;;;;;;5.27;4.77;;;;;;;15.41;86.79;98725.63;4226065;28;20676;-86
2022/06/11 01:24:55;;;;;;;5.67;5.17;;;;;;;15.41;86.95;98730.88;4220349;28;21185;-86
2022/06/11 01:27:23;;;;;;;6.83;4.90;;;;;;;15.37;87.47;98721.56;4201264;28;20645;-86
2022/06/11 01:29:39;;;;;;;7.00;5.30;;;;;;;15.35;87.98;98731.34;4211504;28;20953;-86
2022/06/11 01:31:47;;;;;;;6.70;5.27;;;;;;;15.31;87.66;98724.66;4210101;28;21269;-86
2022/06/11 01:33:55;;;;;;;7.60;4.80;;;;;;;15.29;87.18;98726.56;4224052;28;20626;-86
2022/06/11 01:36:01;;;;;;;7.50;4.83;;;;;;;15.26;88.41;98725.03;4221606;28;20717;-86
2022/06/11 01:38:11;;;;;;;6.70;5.10;;;;;;;15.24;88.11;98726.09;4206457;28;20789;-85
2022/06/11 01:40:20;;;;;;;7.00;4.80;;;;;;;15.23;86.93;98712.13;4200705;28;20673;-86
2022/06/11 01:42:28;;;;;;;10.67;5.20;;;;;;;15.21;88.01;98716.63;4203223;28;20637;-86
2022/06/11 01:44:35;;;;;;;7.07;5.23;;;;;;;15.22;88.32;98717.50;4208641;28;20613;-86
2022/06/11 01:46:40;;;;;;;6.80;5.37;;;;;;;15.22;88.26;98722.75;4211114;28;20629;-86
2022/06/11 01:48:50;;;;;;;6.20;4.73;;;;;;;15.21;87.83;98727.16;4220969;28;21188;-86
2022/06/11 01:51:02;;;;;;;8.47;5.17;;;;;;;15.20;87.10;98728.13;4205753;28;21304;-86
2022/06/11 01:53:26;;;;;;;6.00;5.00;;;;;;;15.16;87.93;98720.56;4213448;28;20621;-86
2022/06/11 01:55:42;;;;;;;5.33;4.63;;;;;;;15.12;88.64;98719.09;4201752;28;20672;-87
2022/06/11 01:58:00;;;;;;;5.50;5.00;;;;;;;15.09;87.61;98724.59;4218701;28;20648;-86
2022/06/11 02:00:11;;;;;;;5.50;4.73;;;;;;;15.05;88.58;98715.28;4222933;28;20626;-86
2022/06/11 02:02:26;;;;;;;6.70;5.40;;;;;;;15.01;87.47;98719.09;4235572;27;20659;-86
2022/06/11 02:04:38;;;;;;;5.97;5.00;;;;;;;14.98;88.72;98714.06;4230222;28;20700;-87
2022/06/11 02:06:49;;;;;;;6.00;5.37;;;;;;;14.95;88.68;98710.84;4221397;28;20735;-86
2022/06/11 02:09:08;;;;;;;6.13;5.20;;;;;;;14.96;88.20;98715.97;4219469;28;20648;-86
2022/06/11 02:11:14;;;;;;;8.53;5.43;;;;;;;14.95;87.56;98721.34;4218465;28;20652;-86
2022/06/11 02:13:26;;;;;;;6.20;5.60;;;;;;;14.93;87.83;98715.34;4210910;28;20740;-86
2022/06/11 02:15:35;;;;;;;5.37;4.87;;;;;;;14.91;87.71;98718.09;4220465;28;20647;-86
2022/06/11 02:17:42;;;;;;;6.43;5.03;;;;;;;14.88;87.91;98713.06;4207620;28;21081;-86
2022/06/11 02:19:49;;;;;;;6.60;5.30;;;;;;;14.89;88.93;98714.75;4220126;28;20724;-86
2022/06/11 02:21:56;;;;;;;5.87;5.27;;;;;;;14.87;88.67;98716.69;4201861;28;20753;-86
2022/06/11 02:24:04;;;;;;;8.80;5.60;;;;;;;14.83;87.53;98720.47;4203960;28;20661;-86
2022/06/11 02:26:11;;;;;;;5.50;5.00;;;;;;;14.77;88.33;98717.47;4210294;28;20671;-87
2022/06/11 02:28:17;;;;;;;5.90;5.30;;;;;;;14.75;88.04;98708.88;4218479;28;20642;-86
2022/06/11 02:30:25;;;;;;;10.40;5.97;;;;;;;14.72;88.07;98720.44;4206395;28;20653;-86
2022/06/11 02:32:32;;;;;;;9.70;4.80;;;;;;;14.71;88.65;98713.50;4219722;28;20612;-86
2022/06/11 02:34:38;;;;;;;5.93;5.10;;;;;;;14.73;88.47;98714.25;4213310;28;20621;-86
2022/06/11 02:36:48;;;;;;;5.57;5.03;;;;;;;14.69;88.31;98712.81;4220281;28;20732;-86
2022/06/11 02:38:51;;;;;;;6.37;5.43;;;;;;;14.65;89.11;98708.72;4205030;28;20690;-87
2022/06/11 02:40:59;;;;;;;7.57;5.27;;;;;;;14.63;89.17;98718.50;4202371;28;20724;-86
2022/06/11 02:43:03;;;;;;;5.70;5.20;;;;;;;14.61;89.05;98716.94;4209220;28;20656;-86
2022/06/11 02:45:07;;;;;;;5.37;4.57;;;;;;;14.58;88.74;98717.16;4212789;28;21083;-86
2022/06/11 02:47:11;;;;;;;5.53;5.03;;;;;;;14.56;88.90;98718.25;4201495;28;20686;-86
2022/06/11 02:49:19;;;;;;;6.03;5.00;;;;;;;14.55;88.66;98716.56;4211188;28;21194;-86
2022/06/11 02:51:24;;;;;;;7.37;5.40;;;;;;;14.57;88.90;98720.75;4204814;28;20691;-86
2022/06/11 02:53:27;;;;;;;5.83;5.23;;;;;;;14.55;89.42;98714.75;4219108;28;20641;-85
2022/06/11 02:55:31;;;;;;;5.87;5.23;;;;;;;14.56;89.50;98715.63;4225618;28;20616;-86
2022/06/11 02:57:34;;;;;;;10.77;5.70;;;;;;;14.56;88.47;98713.81;4201477;28;20682;-86
2022/06/11 02:59:37;;;;;;;7.63;5.60;;;;;;;14.56;89.16;98715.63;4219243;28;20634;-87
2022/06/11 03:01:41;;;;;;;5.97;5.37;;;;;;;14.55;89.35;98722.66;4201442;28;20624;-86
2022/06/11 03:03:44;;;;;;;8.17;5.47;;;;;;;14.53;89.15;98723.72;4219300;28;20652;-86
2022/06/11 03:05:49;;;;;;;7.33;5.50;;;;;;;14.52;87.92;98719.41;4221702;28;20627;-85
2022/06/11 03:07:52;;;;;;;6.03;5.40;;;;;;;14.49;89.55;98725.72;4204423;28;20731;-85
2022/06/11 03:09:55;;;;;;;6.87;5.43;;;;;;;14.49;88.41;98732.75;4223589;28;20710;-86
2022/06/11 03:11:59;;;;;;;7.13;5.57;;;;;;;14.46;89.08;98727.75;4207130;28;20697;-86
2022/06/11 03:14:02;;;;;;;6.20;5.47;;;;;;;14.44;89.10;98732.28;4227827;28;20617;-86
2022/06/11 03:16:07;;;;;;;5.53;4.90;;;;;;;14.43;89.23;98728.78;4215943;28;20621;-86
2022/06/11 03:18:10;;;;;;;8.10;5.57;;;;;;;14.42;89.27;98734.19;4224668;28;20624;-86
2022/06/11 03:20:15;;;;;;;6.50;5.80;;;;;;;14.40;89.25;98733.44;4218191;28;20621;-86
2022/06/11 03:22:20;;;;;;;7.03;5.60;;;;;;;14.41;89.46;98735.13;4229389;28;20684;-86
2022/06/11 03:24:24;;;;;;;8.97;5.33;;;;;;;14.40;89.23;98733.44;4226565;28;20736;-86
2022/06/11 03:26:27;;;;;;;5.77;5.27;;;;;;;14.39;89.97;98730.00;4208951;28;20637;-86
2022/06/11 03:28:31;;;;;;;9.10;5.23;;;;;;;14.41;89.39;98732.50;4215007;28;20712;-86
2022/06/11 03:30:34;;;;;;;5.60;5.10;;;;;;;14.42;89.09;98734.19;4202277;28;21281;-86
2022/06/11 03:32:37;;;;;;;8.50;5.77;;;;;;;14.38;88.80;98738.81;4205374;28;20657;-86
2022/06/11 03:34:46;;;;;;;5.93;5.10;;;;;;;14.37;89.44;98736.28;4211310;28;20616;-86
2022/06/11 03:36:52;;;;;;;6.83;5.73;;;;;;;14.38;90.13;98737.97;4211334;28;20716;-86
2022/06/11 03:38:57;;;;;;;6.33;5.60;;;;;;;14.39;89.37;98743.13;4204623;28;20810;-86
2022/06/11 03:41:00;;;;;;;7.23;5.70;;;;;;;14.37;89.70;98741.53;4219600;28;20744;-86
2022/06/11 03:43:03;;;;;;;7.10;5.43;;;;;;;14.37;89.34;98739.78;4204584;28;20624;-86
2022/06/11 03:45:08;;;;;;;6.23;5.30;;;;;;;14.38;89.37;98745.84;4204799;28;20630;-86
2022/06/11 03:47:11;;;;;;;5.87;5.30;;;;;;;14.36;89.59;98753.84;4202839;28;20633;-86
2022/06/11 03:49:14;;;;;;;6.77;5.40;;;;;;;14.38;89.57;98756.34;4209628;28;20628;-86
2022/06/11 03:51:18;;;;;;;7.23;5.60;;;;;;;14.38;89.52;98758.97;4210059;28;20643;-86
2022/06/11 03:53:21;;;;;;;7.20;5.50;;;;;;;14.37;89.25;98758.16;4210092;28;20716;-86
2022/06/11 03:55:26;;;;;;;6.20;5.60;;;;;;;14.37;89.47;98765.16;4211190;28;20669;-86
2022/06/11 03:57:29;;;;;;;6.13;5.53;;;;;;;14.38;90.16;98758.97;4227009;28;20641;-86
2022/06/11 03:59:33;;;;;;;6.30;5.70;;;;;;;14.42;89.24;98766.50;4220394;28;20646;-86
2022/06/11 04:01:35;;;;;;;7.00;5.80;;;;;;;14.46;89.46;98764.50;4228217;28;20621;-86
2022/06/11 04:03:39;;;;;;;6.40;5.70;;;;;;;14.49;89.29;98772.97;4208314;28;20624;-86
2022/06/11 04:05:43;;;;;;;6.67;5.97;;;;;;;14.51;89.58;98772.84;4211053;28;20629;-86
2022/06/11 04:07:46;;;;;;;6.93;5.73;;;;;;;14.53;89.78;98771.81;4212192;28;20618;-86
2022/06/11 04:09:50;;;;;;;6.60;5.90;;;;;;;14.55;89.36;98777.78;4202515;28;20623;-86
2022/06/11 04:11:54;;;;;;;6.00;5.40;;;;;;;14.56;89.25;98765.50;4211710;28;20668;-85
2022/06/11 04:13:58;;;;;;;8.70;6.20;;;;;;;14.58;89.54;98774.09;4210391;28;20686;-86
2022/06/11 04:16:01;;;;;;;7.30;6.00;;;;;;;14.62;90.14;98774.59;4217798;28;20628;-86
2022/06/11 04:18:06;;;;;;;6.70;5.87;;;;;;;14.67;89.26;98777.72;4207339;28;21260;-86
2022/06/11 04:20:10;;;;;;;10.50;6.60;;;;;;;14.70;89.36;98780.13;4206994;28;20631;-85
2022/06/11 04:22:13;;;;;;;6.77;6.07;;;;;;;14.74;89.76;98783.38;4208320;28;20661;-86
2022/06/11 04:24:17;;;;;;;8.00;5.80;;;;;;;14.79;89.18;98782.09;4203266;28;21039;-86
2022/06/11 04:26:23;;;;;;;6.30;5.70;;;;;;;14.83;89.15;98773.00;4206240;28;20628;-86
2022/06/11 04:28:29;;;;;;;7.90;6.40;;;;;;;14.88;89.20;98785.78;4203034;28;20726;-86
2022/06/11 04:30:32;;;;;;;6.40;5.77;;;;;;;14.91;88.51;98781.13;4207443;28;20643;-86
2022/06/11 04:32:36;;;;;;;7.00;5.90;;;;;;;14.95;89.22;98787.84;4202188;28;20712;-86
2022/06/11 04:34:39;;;;;;;6.03;5.43;;;;;;;14.99;89.49;98784.06;4219654;28;20628;-86
2022/06/11 04:36:44;;;;;;;7.87;6.00;;;;;;;15.03;89.17;98782.03;4221374;28;20634;-86
2022/06/11 04:38:48;;;;;;;7.70;5.47;;;;;;;15.07;88.39;98780.84;4219655;28;20686;-86
2022/06/11 04:40:51;;;;;;;6.33;5.63;;;;;;;15.11;88.93;98788.41;4200193;28;20626;-86
2022/06/11 04:42:54;;;;;;;6.27;5.67;;;;;;;15.14;88.22;98785.53;4224889;28;20629;-86
2022/06/11 04:44:59;;;;;;;8.27;5.70;;;;;;;15.19;88.42;98786.06;4206226;28;21235;-86
2022/06/11 04:47:02;;;;;;;6.63;5.50;;;;;;;15.24;87.83;98792.63;4224274;28;21261;-86
2022/06/11 04:49:06;;;;;;;6.60;6.00;;;;;;;15.29;89.64;98787.88;4208505;28;20637;-86
2022/06/11 04:51:10;;;;;;;6.10;5.50;;;;;;;15.35;87.92;98790.03;4225260;28;20635;-87
2022/06/11 04:53:13;;;;;;;7.20;5.40;;;;;;;15.40;88.18;98790.50;4221058;28;20754;-86
2022/06/11 04:55:16;;;;;;;6.17;5.57;;;;;;;15.48;87.20;98787.28;4214737;28;20649;-86
2022/06/11 04:57:21;;;;;;;9.20;5.50;;;;;;;15.51;87.57;98797.56;4231492;28;20625;-86
2022/06/11 04:59:24;;;;;;;7.30;5.60;;;;;;;15.54;87.29;98797.34;4212500;28;20677;-86
2022/06/11 05:01:29;;;;;;;5.87;5.27;;;;;;;15.58;85.69;98797.00;4214100;28;20657;-86
2022/06/11 05:03:42;;;;;;;9.20;6.33;;;;;;;15.59;86.04;98790.75;4222503;28;20624;-86
2022/06/11 05:05:45;;;;;;;8.53;5.50;;;;;;;15.62;86.36;98796.63;4205611;28;20638;-86
2022/06/11 05:07:49;;;;;;;6.37;5.67;;;;;;;15.68;87.53;98796.16;4203042;28;20642;-86
2022/06/11 05:09:52;;;;;;;7.93;6.00;;;;;;;15.76;87.32;98801.66;4203200;28;20692;-86
2022/06/11 05:11:56;;;;;;;7.80;5.93;;;;;;;15.84;87.36;98798.44;4229951;28;20652;-86
2022/06/11 05:13:59;;;;;;;7.63;5.83;;;;;;;15.91;88.01;98811.00;4219995;28;20628;-86
2022/06/11 05:16:20;;;;;;;9.63;5.40;;;;;;;15.99;88.44;98811.22;4226735;28;21248;-86
2022/06/11 05:18:25;;;;;;;13.93;6.67;;;;;;;16.06;87.37;98808.00;4210548;28;20725;-86
2022/06/11 05:20:34;;;;;;;6.43;5.30;;;;;;;16.13;85.52;98805.69;4212324;28;21087;-86
2022/06/11 05:22:38;;;;;;;6.87;5.80;;;;;;;16.20;86.04;98805.09;4222000;28;20715;-86
2022/06/11 05:24:41;;;;;;;8.33;5.43;;;;;;;16.32;86.32;98808.59;4210779;28;20977;-86
2022/06/11 05:26:49;;;;;;;6.87;5.20;;;;;;;16.42;86.40;98815.63;4207969;28;20634;-87
2022/06/11 05:28:52;;;;;;;5.93;5.30;;;;;;;16.52;87.31;98809.50;4217613;28;20624;-86
2022/06/11 05:30:56;;;;;;;7.60;5.70;;;;;;;16.65;85.59;98814.63;4214087;28;20675;-86
2022/06/11 05:33:01;;;;;;;6.40;5.50;;;;;;;16.76;86.49;98818.03;4213777;28;20667;-86
2022/06/11 05:35:09;;;;;;;6.30;5.30;;;;;;;16.91;86.10;98816.78;4217987;28;21200;-86
2022/06/11 05:37:12;;;;;;;6.20;5.50;;;;;;;17.13;85.97;98824.63;4206663;28;20654;-86
2022/06/11 05:39:16;;;;;;;6.13;5.53;;;;;;;17.41;84.99;98824.00;4222038;28;20629;-86
2022/06/11 05:41:19;;;;;;;7.43;5.00;;;;;;;17.77;84.92;98825.22;4205327;28;20627;-87
2022/06/11 05:43:23;;;;;;;7.83;5.00;;;;;;;18.11;82.62;98834.53;4205200;28;20723;-86
2022/06/11 05:45:28;;;;;;;5.33;4.80;;;;;;;18.43;81.24;98831.63;4218229;28;20654;-86
2022/06/11 05:47:38;;;;;;;5.90;5.00;;;;;;;18.78;79.48;98839.06;4222680;28;20627;-87
2022/06/11 05:49:45;;;;;;;5.50;4.93;;;;;;;19.17;78.71;98842.50;4222458;28;21190;-86
2022/06/11 05:51:54;;;;;;;7.67;5.53;;;;;;;19.56;78.37;98844.97;4212210;28;20711;-86
2022/06/11 05:53:58;;;;;;;6.03;5.50;;;;;;;19.95;78.92;98841.25;4213910;28;20652;-86
2022/06/11 05:56:03;;;;;;;6.77;5.30;;;;;;;20.25;78.14;98849.81;4204689;28;21191;-87
2022/06/11 05:58:10;;;;;;;6.60;5.40;;;;;;;20.54;77.36;98851.34;4211576;28;20698;-86
2022/06/11 06:00:16;;;;;;;6.63;5.10;;;;;;;20.83;76.98;98852.03;4230024;28;21187;-86
2022/06/11 06:02:23;;;;;;;5.30;4.63;;;;;;;21.12;75.28;98858.78;4212017;28;21227;-87
2022/06/11 06:04:27;;;;;;;6.33;4.47;;;;;;;21.36;74.83;98849.28;4224512;28;20617;-86
2022/06/11 06:06:30;;;;;;;6.80;4.30;;;;;;;21.62;75.00;98854.63;4212606;28;20630;-87
2022/06/11 06:08:35;;;;;;;5.27;4.77;;;;;;;21.85;73.39;98844.19;4211224;28;21213;-86
2022/06/11 06:10:38;;;;;;;5.20;4.60;;;;;;;22.15;72.69;98850.88;4219580;28;20618;-86
2022/06/11 06:12:43;;;;;;;5.97;4.57;;;;;;;22.34;71.22;98848.81;4216495;28;20638;-86
2022/06/11 06:14:46;;;;;;;5.00;4.37;;;;;;;22.56;70.96;98857.06;4219824;28;20660;-86
2022/06/11 06:16:54;;;;;;;6.80;4.80;;;;;;;22.81;69.97;98862.31;4208013;28;21071;-87
2022/06/11 06:19:36;;;;;;;6.93;4.10;;;;;;;23.11;69.86;98864.44;4227165;28;20761;-87
2022/06/11 06:21:39;;;;;;;5.43;4.50;;;;;;;23.35;68.96;98859.97;4212887;28;20659;-86
2022/06/11 06:23:44;;;;;;;5.37;4.00;;;;;;;23.55;68.97;98860.47;4215501;28;21273;-87
2022/06/11 06:25:49;;;;;;;5.47;4.10;;;;;;;23.84;67.71;98869.66;4206222;28;21185;-86
2022/06/11 06:27:52;;;;;;;4.80;3.77;;;;;;;24.02;65.06;98867.63;4211471;28;20631;-86
2022/06/11 06:29:55;;;;;;;4.97;3.93;;;;;;;24.05;64.27;98868.13;4202407;28;20617;-86
2022/06/11 06:31:58;;;;;;;4.00;3.60;;;;;;;24.20;67.55;98866.41;4210373;28;21028;-86
2022/06/11 06:34:02;;;;;;;4.30;3.90;;;;;;;24.31;64.14;98877.56;4221109;28;20649;-87
2022/06/11 06:36:07;;;;;;;6.53;4.20;;;;;;;24.56;66.78;98883.69;4206351;28;20985;-86
2022/06/11 06:38:10;;;;;;;6.80;4.00;;;;;;;24.75;63.30;98879.59;4208856;28;20731;-86
2022/06/11 06:40:14;;;;;;;5.17;3.90;;;;;;;24.81;63.16;98876.25;4212502;28;20702;-86
2022/06/11 06:42:18;;;;;;;4.47;4.03;;;;;;;24.90;64.19;98877.88;4220594;28;21193;-85
2022/06/11 06:44:21;;;;;;;4.73;3.83;;;;;;;25.08;62.97;98875.81;4217116;28;20626;-86
2022/06/11 06:46:24;;;;;;;5.37;4.30;;;;;;;25.30;63.89;98869.66;4221160;28;20712;-86
2022/06/11 06:48:28;;;;;;;5.07;4.37;;;;;;;25.50;62.86;98874.34;4214123;28;20640;-86
2022/06/11 06:50:31;;;;;;;5.03;4.53;;;;;;;25.71;63.05;98877.25;4228461;28;21223;-86
2022/06/11 06:52:34;;;;;;;4.77;4.27;;;;;;;26.00;64.14;98874.63;4230942;27;20652;-86
2022/06/11 06:54:37;;;;;;;4.40;4.00;;;;;;;26.23;64.08;98882.41;4212419;28;20644;-85
2022/06/11 06:56:44;;;;;;;4.20;3.80;;;;;;;26.45;60.30;98880.72;4209863;28;20629;-86
2022/06/11 06:58:47;;;;;;;6.53;4.43;;;;;;;26.58;59.62;98879.88;4212907;28;20663;-87
2022/06/11 07:00:52;;;;;;;5.93;4.47;;;;;;;26.75;59.79;98888.56;4208777;28;21208;-86
2022/06/11 07:02:55;;;;;;;4.20;3.80;;;;;;;26.91;60.27;98885.69;4218586;28;20664;-86
2022/06/11 07:04:59;;;;;;;4.60;4.20;;;;;;;27.11;60.33;98887.59;4224061;28;20640;-86
2022/06/11 07:07:02;;;;;;;7.80;3.90;;;;;;;27.19;59.47;98888.31;4212782;28;20636;-87
2022/06/11 07:09:06;;;;;;;6.63;3.97;;;;;;;27.29;58.46;98888.00;4206255;28;20688;-86
2022/06/11 07:11:09;;;;;;;4.30;3.37;;;;;;;27.41;58.64;98890.00;4218157;28;20662;-86
2022/06/11 07:13:13;;;;;;;3.73;3.30;;;;;;;27.54;59.66;98885.66;4216601;28;21056;-86
2022/06/11 07:15:17;;;;;;;4.43;3.70;;;;;;;27.66;57.95;98883.25;4207998;28;20756;-87
2022/06/11 07:17:21;;;;;;;4.33;3.70;;;;;;;27.68;56.30;98873.16;4204501;28;20622;-87
2022/06/11 07:19:26;;;;;;;4.23;3.83;;;;;;;27.80;57.18;98877.00;4211927;28;20664;-87
2022/06/11 07:21:34;;;;;;;4.77;3.30;;;;;;;27.89;56.64;98878.50;4220561;28;20702;-86
2022/06/11 07:23:40;;;;;;;4.23;3.43;;;;;;;27.90;56.24;98872.97;4220785;28;20616;-87
2022/06/11 07:25:44;;;;;;;4.07;2.97;;;;;;;27.96;58.19;98871.38;4214397;28;20629;-87
2022/06/11 07:27:50;;;;;;;4.10;3.77;;;;;;;28.04;56.47;98867.50;4209088;28;20639;-86
2022/06/11 07:29:57;;;;;;;4.40;3.60;;;;;;;28.09;57.42;98870.47;4210787;28;20644;-87
2022/06/11 07:32:04;;;;;;;3.83;3.47;;;;;;;28.05;56.25;98866.50;4207233;28;20622;-86
2022/06/11 07:34:07;;;;;;;5.03;3.93;;;;;;;28.00;54.97;98868.91;4212520;28;21058;-86
2022/06/11 07:36:12;;;;;;;4.83;3.53;;;;;;;27.96;56.79;98866.00;4204581;28;20730;-86
2022/06/11 07:38:38;;;;;;;5.40;4.00;;;;;;;28.00;56.28;98870.78;4227807;28;20629;-86
2022/06/11 07:40:42;;;;;;;5.13;3.80;;;;;;;28.15;59.03;98876.91;4217900;28;20651;-86
2022/06/11 07:43:06;;;;;;;4.27;3.60;;;;;;;28.33;58.73;98870.03;4224842;28;21000;-87
2022/06/11 07:45:12;;;;;;;6.37;3.90;;;;;;;28.45;56.98;98876.50;4219089;28;20615;-86
2022/06/11 07:47:53;;;;;;;5.60;4.00;;;;;;;28.50;57.45;98874.88;4217367;28;20631;-87
2022/06/11 07:49:40;;;;;;;6.07;3.50;;;;;;;28.53;57.44;98873.66;4224394;28;20653;-87
2022/06/11 07:51:44;;;;;;;5.33;3.60;;;;;;;28.54;55.68;98878.00;4227358;28;20639;-86
2022/06/11 07:53:49;;;;;;;4.30;3.53;;;;;;;28.50;56.93;98868.69;4205612;28;21195;-87
2022/06/11 07:55:55;;;;;;;4.00;3.20;;;;;;;28.53;55.14;98870.97;4223508;28;20972;-86
2022/06/11 07:57:58;;;;;;;4.43;3.50;;;;;;;28.58;56.35;98874.72;4228004;28;20631;-87
2022/06/11 08:00:02;;;;;;;3.83;3.20;;;;;;;28.68;56.08;98880.59;4203100;28;20761;-87
2022/06/11 08:02:16;;;;;;;3.90;3.37;;;;;;;28.69;55.45;98876.06;4224623;28;20659;-86
2022/06/11 08:04:20;;;;;;;4.10;3.20;;;;;;;28.76;56.90;98880.44;4202801;28;21288;-87
2022/06/11 08:06:24;;;;;;;4.77;3.67;;;;;;;28.89;58.29;98877.81;4203876;28;20785;-87
2022/06/11 08:08:28;;;;;;;4.03;3.03;;;;;;;29.00;54.70;98878.06;4201617;28;20662;-87
2022/06/11 08:10:34;;;;;;;5.47;3.57;;;;;;;29.12;54.02;98871.09;4205006;28;20684;-87
2022/06/11 08:12:38;;;;;;;5.43;3.10;;;;;;;29.19;55.57;98880.00;4210333;28;20633;-87
2022/06/11 08:14:41;;;;;;;3.47;3.17;;;;;;;29.32;55.38;98874.69;4210759;28;21244;-87
2022/06/11 08:16:53;;;;;;;5.53;3.37;;;;;;;29.35;55.72;98871.59;4209761;28;20666;-87
2022/06/11 08:18:58;;;;;;;5.80;3.50;;;;;;;29.27;54.58;98866.38;4215346;28;20619;-87
2022/06/11 08:21:01;;;;;;;7.33;3.17;;;;;;;29.23;54.84;98870.53;4208226;28;20608;-87
2022/06/11 08:23:21;;;;;;;5.70;3.40;;;;;;;29.27;55.52;98866.38;4221140;27;20748;-87
2022/06/11 08:25:24;;;;;;;3.90;3.40;;;;;;;29.41;56.05;98873.47;4210291;28;20659;-87
2022/06/11 08:27:27;;;;;;;4.80;3.63;;;;;;;29.38;53.71;98863.13;4211605;28;20845;-87
2022/06/11 08:29:31;;;;;;;4.63;3.17;;;;;;;29.40;55.55;98877.19;4213628;28;20713;-87
2022/06/11 08:31:35;;;;;;;4.30;3.20;;;;;;;29.50;54.99;98869.56;4222433;28;20666;-87
2022/06/11 08:33:38;;;;;;;4.17;3.30;;;;;;;29.50;55.50;98872.25;4220304;28;20672;-87
2022/06/11 08:35:45;;;;;;;5.23;3.63;;;;;;;29.46;55.69;98862.94;4209979;28;20746;-87
2022/06/11 08:37:49;;;;;;;4.10;3.27;;;;;;;29.56;54.36;98866.06;4210137;28;20659;-87
2022/06/11 08:39:52;;;;;;;5.40;3.40;;;;;;;29.51;53.69;98861.28;4225506;28;20618;-86
2022/06/11 08:41:59;;;;;;;4.50;3.30;;;;;;;29.50;57.31;98877.63;4205628;28;20627;-86
2022/06/11 08:44:05;;;;;;;6.17;3.60;;;;;;;29.46;52.73;98856.72;4230116;28;20621;-87
2022/06/11 08:46:12;;;;;;;4.80;3.43;;;;;;;29.39;54.08;98856.69;4213728;28;20708;-87
2022/06/11 08:48:22;;;;;;;3.87;3.47;;;;;;;29.43;54.58;98855.25;4202458;28;20630;-87
2022/06/11 08:50:31;;;;;;;3.87;3.33;;;;;;;29.41;53.57;98861.88;4203488;28;21189;-86
2022/06/11 08:52:35;;;;;;;4.23;3.50;;;;;;;29.37;52.62;98860.63;4227095;28;20609;-86
2022/06/11 08:54:42;;;;;;;3.80;3.20;;;;;;;29.34;52.44;98856.47;4212803;28;20732;-87
2022/06/11 08:56:51;;;;;;;5.30;3.50;;;;;;;29.37;54.34;98858.78;4225272;28;20666;-87
2022/06/11 08:59:09;;;;;;;4.10;3.00;;;;;;;29.40;54.17;98852.16;4225372;28;20625;-87
2022/06/11 09:01:21;;;;;;;4.93;3.50;;;;;;;29.40;52.90;98862.91;4219844;28;20630;-87
2022/06/11 09:03:35;;;;;;;6.30;3.63;;;;;;;29.30;51.39;98860.59;4219583;28;20752;-87
2022/06/11 09:06:17;;;;;;;5.40;3.37;;;;;;;29.20;52.85;98849.41;4219823;28;20619;-87
2022/06/11 09:08:30;;;;;;;4.90;3.10;;;;;;;29.09;52.42;98847.31;4204365;28;20730;-86
2022/06/11 09:11:01;;;;;;;4.10;3.10;;;;;;;29.07;53.00;98851.22;4225972;28;20629;-87
2022/06/11 09:13:23;;;;;;;3.70;3.17;;;;;;;29.19;53.70;98846.91;4221930;28;20668;-87
2022/06/11 09:15:33;;;;;;;3.00;2.53;;;;;;;29.20;51.43;98844.00;4196557;28;20669;-86
2022/06/11 09:17:58;;;;;;;4.53;3.17;;;;;;;29.18;52.14;98846.09;4221860;28;20621;-87
2022/06/11 09:20:12;;;;;;;4.27;3.40;;;;;;;29.07;52.03;98841.28;4193458;28;20646;-86
2022/06/11 09:22:35;;;;;;;3.90;3.27;;;;;;;29.17;56.77;98844.41;4221676;28;21267;-87
2022/06/11 09:24:54;;;;;;;6.10;3.07;;;;;;;29.31;55.09;98851.50;4220103;28;21195;-87
2022/06/11 09:27:00;;;;;;;3.87;2.70;;;;;;;29.36;53.50;98840.97;4219114;28;20626;-87
2022/06/11 09:29:12;;;;;;;3.50;3.20;;;;;;;29.27;55.60;98844.88;4217103;28;20725;-87
2022/06/11 09:31:21;;;;;;;5.17;3.20;;;;;;;29.23;53.79;98840.94;4211234;28;20777;-87
2022/06/11 09:33:30;;;;;;;4.30;3.43;;;;;;;29.30;54.24;98831.03;4219198;28;20639;-87
2022/06/11 09:35:38;;;;;;;4.07;3.00;;;;;;;29.34;53.73;98834.16;4206362;28;20650;-87
2022/06/11 09:37:49;;;;;;;5.97;3.13;;;;;;;29.32;54.56;98826.28;4227278;28;20669;-87
2022/06/11 09:39:59;;;;;;;3.50;2.70;;;;;;;29.18;52.22;98838.03;4218845;28;20668;-86
2022/06/11 09:42:13;;;;;;;5.40;3.30;;;;;;;29.23;53.63;98830.19;4229946;28;20713;-87
2022/06/11 09:44:30;;;;;;;6.17;3.07;;;;;;;29.25;52.33;98830.81;4229107;28;21226;-87
2022/06/11 09:46:36;;;;;;;4.93;3.00;;;;;;;29.36;54.56;98832.06;4222368;28;21073;-86
2022/06/11 09:48:54;;;;;;;4.00;3.23;;;;;;;29.38;53.24;98830.84;4213145;28;20993;-87
2022/06/11 09:51:04;;;;;;;3.50;3.10;;;;;;;29.37;52.41;98829.19;4205232;28;21255;-87
2022/06/11 09:53:17;;;;;;;4.97;3.00;;;;;;;29.31;52.37;98840.75;4198455;28;20713;-87
2022/06/11 09:55:27;;;;;;;4.50;3.53;;;;;;;29.24;51.95;98839.91;4209230;28;20651;-86
2022/06/11 09:57:40;;;;;;;6.23;3.50;;;;;;;29.14;53.87;98839.44;4222073;28;20625;-86
2022/06/11 09:59:45;;;;;;;5.60;3.37;;;;;;;29.14;53.99;98841.31;4208033;28;20615;-86